sensor_id;sensor_type;location;lat;lon;timestamp;temperature;humidity
12926;DHT22;6529;50.566;9.774;2023-07-09T00:02:24;20.80;1.00
12926;DHT22;6529;50.566;9.774;2023-07-09T00:04:50;20.70;1.00
12926;DHT22;6529;50.566;9.774;2023-07-09T00:07:28;20.60;1.00
12926;DHT22;6529;50.566;9.774;2023-07-09T00:09:55;20.70;25.90
12926;DHT22;6529;50.566;9.774;2023-07-09T00:12:21;20.70;99.90
12926;DHT22;6529;50.566;9.774;2023-07-09T00:14:47;20.60;99.90
12926;DHT22;6529;50.566;9.774;2023-07-09T00:17:31;20.50;1.00
12926;DHT22;6529;50.566;9.774;2023-07-09T00:19:59;20.50;1.00
12926;DHT22;6529;50.566;9.774;2023-07-09T00:22:24;20.50;1.00
12926;DHT22;6529;50.566;9.774;2023-07-09T00:24:52;20.40;1.00
12926;DHT22;6529;50.566;9.774;2023-07-09T00:27:23;20.20;1.00
12926;DHT22;6529;50.566;9.774;2023-07-09T00:29:50;20.20;99.90
12926;DHT22;6529;50.566;9.774;2023-07-09T00:32:19;20.40;99.90
12926;DHT22;6529;50.566;9.774;2023-07-09T00:34:51;20.40;99.90
12926;DHT22;6529;50.566;9.774;2023-07-09T00:37:18;20.40;99.90
12926;DHT22;6529;50.566;9.774;2023-07-09T00:39:45;20.20;99.90
12926;DHT22;6529;50.566;9.774;2023-07-09T00:42:16;20.10;1.00
12926;DHT22;6529;50.566;9.774;2023-07-09T00:44:46;20.00;1.00
12926;DHT22;6529;50.566;9.774;2023-07-09T00:47:25;19.90;1.00
12926;DHT22;6529;50.566;9.774;2023-07-09T00:52:52;20.00;99.90
12926;DHT22;6529;50.566;9.774;2023-07-09T00:55:24;19.90;1.00
12926;DHT22;6529;50.566;9.774;2023-07-09T00:57:53;20.00;1.00
12926;DHT22;6529;50.566;9.774;2023-07-09T01:00:31;20.00;1.00
12926;DHT22;6529;50.566;9.774;2023-07-09T01:03:02;19.90;1.00
12926;DHT22;6529;50.566;9.774;2023-07-09T01:05:29;19.80;1.00
12926;DHT22;6529;50.566;9.774;2023-07-09T01:07:54;19.90;1.00
12926;DHT22;6529;50.566;9.774;2023-07-09T01:10:23;19.90;1.00
12926;DHT22;6529;50.566;9.774;2023-07-09T01:12:50;19.70;99.90
12926;DHT22;6529;50.566;9.774;2023-07-09T01:15:16;19.70;99.90
12926;DHT22;6529;50.566;9.774;2023-07-09T01:17:42;19.60;1.00
12926;DHT22;6529;50.566;9.774;2023-07-09T01:20:15;19.50;1.00
12926;DHT22;6529;50.566;9.774;2023-07-09T01:22:41;19.60;1.00
12926;DHT22;6529;50.566;9.774;2023-07-09T01:25:07;19.50;1.00
12926;DHT22;6529;50.566;9.774;2023-07-09T01:27:40;19.60;1.00
12926;DHT22;6529;50.566;9.774;2023-07-09T01:30:12;19.60;1.00
12926;DHT22;6529;50.566;9.774;2023-07-09T01:32:40;19.60;1.00
12926;DHT22;6529;50.566;9.774;2023-07-09T01:35:11;19.70;1.00
12926;DHT22;6529;50.566;9.774;2023-07-09T01:37:37;19.50;99.90
12926;DHT22;6529;50.566;9.774;2023-07-09T01:40:05;19.50;99.90
12926;DHT22;6529;50.566;9.774;2023-07-09T01:42:31;19.40;47.90
12926;DHT22;6529;50.566;9.774;2023-07-09T01:44:57;19.40;1.00
12926;DHT22;6529;50.566;9.774;2023-07-09T01:47:23;19.40;1.00
12926;DHT22;6529;50.566;9.774;2023-07-09T01:49:53;19.40;1.00
12926;DHT22;6529;50.566;9.774;2023-07-09T01:52:24;19.40;1.00
12926;DHT22;6529;50.566;9.774;2023-07-09T01:54:50;19.40;1.00
12926;DHT22;6529;50.566;9.774;2023-07-09T01:57:26;19.40;1.00
12926;DHT22;6529;50.566;9.774;2023-07-09T01:59:59;19.40;1.00
12926;DHT22;6529;50.566;9.774;2023-07-09T02:02:26;19.30;1.00
12926;DHT22;6529;50.566;9.774;2023-07-09T02:04:54;19.40;1.00
12926;DHT22;6529;50.566;9.774;2023-07-09T02:07:22;19.30;1.00
12926;DHT22;6529;50.566;9.774;2023-07-09T02:09:48;19.20;1.00
12926;DHT22;6529;50.566;9.774;2023-07-09T02:12:14;19.10;60.70
12926;DHT22;6529;50.566;9.774;2023-07-09T02:14:41;19.10;99.90
12926;DHT22;6529;50.566;9.774;2023-07-09T02:17:09;19.00;99.90
12926;DHT22;6529;50.566;9.774;2023-07-09T02:19:35;18.90;99.90
12926;DHT22;6529;50.566;9.774;2023-07-09T02:22:01;18.90;99.90
12926;DHT22;6529;50.566;9.774;2023-07-09T02:24:26;18.90;1.00
12926;DHT22;6529;50.566;9.774;2023-07-09T02:26:57;18.80;1.00
12926;DHT22;6529;50.566;9.774;2023-07-09T02:29:24;18.90;1.00
12926;DHT22;6529;50.566;9.774;2023-07-09T02:31:51;18.70;1.00
12926;DHT22;6529;50.566;9.774;2023-07-09T02:34:18;18.70;1.00
12926;DHT22;6529;50.566;9.774;2023-07-09T02:36:44;18.70;1.00
12926;DHT22;6529;50.566;9.774;2023-07-09T02:39:11;18.50;54.80
12926;DHT22;6529;50.566;9.774;2023-07-09T02:41:41;18.50;1.00
12926;DHT22;6529;50.566;9.774;2023-07-09T02:44:07;18.50;1.00
12926;DHT22;6529;50.566;9.774;2023-07-09T02:46:33;18.30;99.90
12926;DHT22;6529;50.566;9.774;2023-07-09T02:48:59;18.20;99.90
12926;DHT22;6529;50.566;9.774;2023-07-09T02:51:25;18.30;1.00
12926;DHT22;6529;50.566;9.774;2023-07-09T02:53:55;18.40;99.90
12926;DHT22;6529;50.566;9.774;2023-07-09T02:56:22;18.60;1.00
12926;DHT22;6529;50.566;9.774;2023-07-09T02:58:47;18.80;99.90
12926;DHT22;6529;50.566;9.774;2023-07-09T03:01:13;18.90;99.90
12926;DHT22;6529;50.566;9.774;2023-07-09T03:03:39;18.80;99.90
12926;DHT22;6529;50.566;9.774;2023-07-09T03:06:05;18.80;1.00
12926;DHT22;6529;50.566;9.774;2023-07-09T03:08:31;18.50;1.00
12926;DHT22;6529;50.566;9.774;2023-07-09T03:10:57;18.40;99.90
12926;DHT22;6529;50.566;9.774;2023-07-09T03:13:22;18.30;99.90
12926;DHT22;6529;50.566;9.774;2023-07-09T03:15:57;18.10;99.90
12926;DHT22;6529;50.566;9.774;2023-07-09T03:18:24;18.10;1.00
12926;DHT22;6529;50.566;9.774;2023-07-09T03:20:50;18.00;1.00
12926;DHT22;6529;50.566;9.774;2023-07-09T03:23:16;17.90;1.00
12926;DHT22;6529;50.566;9.774;2023-07-09T03:25:45;18.00;1.00
12926;DHT22;6529;50.566;9.774;2023-07-09T03:28:11;18.00;1.00
12926;DHT22;6529;50.566;9.774;2023-07-09T03:30:45;17.90;1.00
12926;DHT22;6529;50.566;9.774;2023-07-09T03:33:11;17.70;99.90
12926;DHT22;6529;50.566;9.774;2023-07-09T03:35:37;17.60;1.00
12926;DHT22;6529;50.566;9.774;2023-07-09T03:38:07;17.60;1.00
12926;DHT22;6529;50.566;9.774;2023-07-09T03:40:34;17.60;1.00
12926;DHT22;6529;50.566;9.774;2023-07-09T03:42:59;17.50;1.00
12926;DHT22;6529;50.566;9.774;2023-07-09T03:45:25;17.40;99.90
12926;DHT22;6529;50.566;9.774;2023-07-09T03:47:51;17.30;99.90
12926;DHT22;6529;50.566;9.774;2023-07-09T03:50:17;17.40;1.00
12926;DHT22;6529;50.566;9.774;2023-07-09T03:52:43;17.30;1.00
12926;DHT22;6529;50.566;9.774;2023-07-09T03:55:08;17.40;1.00
12926;DHT22;6529;50.566;9.774;2023-07-09T03:57:35;17.60;93.90
12926;DHT22;6529;50.566;9.774;2023-07-09T04:00:02;17.60;1.00
12926;DHT22;6529;50.566;9.774;2023-07-09T04:02:28;17.60;1.00
12926;DHT22;6529;50.566;9.774;2023-07-09T04:04:54;17.60;1.00
12926;DHT22;6529;50.566;9.774;2023-07-09T04:07:19;17.60;1.00
12926;DHT22;6529;50.566;9.774;2023-07-09T04:09:45;17.60;99.90
12926;DHT22;6529;50.566;9.774;2023-07-09T04:12:10;17.60;92.30
12926;DHT22;6529;50.566;9.774;2023-07-09T04:14:36;17.60;1.00
12926;DHT22;6529;50.566;9.774;2023-07-09T04:17:02;17.70;99.90
12926;DHT22;6529;50.566;9.774;2023-07-09T04:19:28;17.80;1.00
12926;DHT22;6529;50.566;9.774;2023-07-09T04:21:53;17.80;1.00
12926;DHT22;6529;50.566;9.774;2023-07-09T04:24:20;17.90;1.00
12926;DHT22;6529;50.566;9.774;2023-07-09T04:26:46;17.90;1.00
12926;DHT22;6529;50.566;9.774;2023-07-09T04:29:12;17.70;99.90
12926;DHT22;6529;50.566;9.774;2023-07-09T04:31:38;17.70;99.90
12926;DHT22;6529;50.566;9.774;2023-07-09T04:34:04;17.70;1.00
12926;DHT22;6529;50.566;9.774;2023-07-09T04:36:30;17.70;1.00
12926;DHT22;6529;50.566;9.774;2023-07-09T04:38:56;17.80;99.90
12926;DHT22;6529;50.566;9.774;2023-07-09T04:41:22;18.00;99.90
12926;DHT22;6529;50.566;9.774;2023-07-09T04:43:47;18.00;1.00
12926;DHT22;6529;50.566;9.774;2023-07-09T04:46:13;18.00;99.90
12926;DHT22;6529;50.566;9.774;2023-07-09T04:48:39;17.90;1.00
12926;DHT22;6529;50.566;9.774;2023-07-09T04:51:04;17.80;1.00
12926;DHT22;6529;50.566;9.774;2023-07-09T04:53:30;18.00;1.00
12926;DHT22;6529;50.566;9.774;2023-07-09T04:55:56;18.00;99.90
12926;DHT22;6529;50.566;9.774;2023-07-09T04:58:22;18.00;99.90
12926;DHT22;6529;50.566;9.774;2023-07-09T05:00:47;18.10;1.00
12926;DHT22;6529;50.566;9.774;2023-07-09T05:03:13;18.10;99.90
12926;DHT22;6529;50.566;9.774;2023-07-09T05:05:43;18.20;1.00
12926;DHT22;6529;50.566;9.774;2023-07-09T05:08:09;18.20;99.90
12926;DHT22;6529;50.566;9.774;2023-07-09T05:10:49;18.30;1.00
12926;DHT22;6529;50.566;9.774;2023-07-09T05:13:16;18.30;1.00
12926;DHT22;6529;50.566;9.774;2023-07-09T05:15:45;18.40;1.00
12926;DHT22;6529;50.566;9.774;2023-07-09T05:18:14;18.50;99.90
12926;DHT22;6529;50.566;9.774;2023-07-09T05:20:41;18.60;1.00
12926;DHT22;6529;50.566;9.774;2023-07-09T05:23:08;18.70;99.90
12926;DHT22;6529;50.566;9.774;2023-07-09T05:25:34;18.70;1.00
12926;DHT22;6529;50.566;9.774;2023-07-09T05:28:00;18.70;1.00
12926;DHT22;6529;50.566;9.774;2023-07-09T05:30:26;18.70;1.00
12926;DHT22;6529;50.566;9.774;2023-07-09T05:32:51;18.80;1.00
12926;DHT22;6529;50.566;9.774;2023-07-09T05:35:19;18.80;99.90
12926;DHT22;6529;50.566;9.774;2023-07-09T05:37:44;18.90;1.00
12926;DHT22;6529;50.566;9.774;2023-07-09T05:40:10;19.00;99.90
12926;DHT22;6529;50.566;9.774;2023-07-09T05:42:36;19.10;1.00
12926;DHT22;6529;50.566;9.774;2023-07-09T05:45:01;19.20;99.90
12926;DHT22;6529;50.566;9.774;2023-07-09T05:47:27;19.30;1.00
12926;DHT22;6529;50.566;9.774;2023-07-09T05:49:52;19.40;1.00
12926;DHT22;6529;50.566;9.774;2023-07-09T05:52:22;19.50;99.90
12926;DHT22;6529;50.566;9.774;2023-07-09T05:54:50;19.50;99.90
12926;DHT22;6529;50.566;9.774;2023-07-09T05:57:16;19.60;99.90
12926;DHT22;6529;50.566;9.774;2023-07-09T05:59:42;19.70;99.90
12926;DHT22;6529;50.566;9.774;2023-07-09T06:02:15;19.80;99.90
12926;DHT22;6529;50.566;9.774;2023-07-09T06:04:41;19.90;99.90
12926;DHT22;6529;50.566;9.774;2023-07-09T06:07:08;20.00;1.00
12926;DHT22;6529;50.566;9.774;2023-07-09T06:09:34;20.10;1.00
12926;DHT22;6529;50.566;9.774;2023-07-09T06:12:00;20.20;1.00
12926;DHT22;6529;50.566;9.774;2023-07-09T06:14:26;20.20;99.90
12926;DHT22;6529;50.566;9.774;2023-07-09T06:16:52;20.30;1.00
12926;DHT22;6529;50.566;9.774;2023-07-09T06:19:17;20.40;1.00
12926;DHT22;6529;50.566;9.774;2023-07-09T06:21:43;20.50;99.90
12926;DHT22;6529;50.566;9.774;2023-07-09T06:24:09;20.60;1.00
12926;DHT22;6529;50.566;9.774;2023-07-09T06:26:35;20.70;1.00
12926;DHT22;6529;50.566;9.774;2023-07-09T06:29:01;20.80;99.90
12926;DHT22;6529;50.566;9.774;2023-07-09T06:31:26;20.90;1.00
12926;DHT22;6529;50.566;9.774;2023-07-09T06:33:52;21.10;99.90
12926;DHT22;6529;50.566;9.774;2023-07-09T06:36:19;21.20;1.00
12926;DHT22;6529;50.566;9.774;2023-07-09T06:38:45;21.30;1.00
12926;DHT22;6529;50.566;9.774;2023-07-09T06:41:12;21.40;1.00
12926;DHT22;6529;50.566;9.774;2023-07-09T06:43:37;21.50;51.30
12926;DHT22;6529;50.566;9.774;2023-07-09T06:46:05;21.60;1.00
12926;DHT22;6529;50.566;9.774;2023-07-09T06:48:31;21.70;99.90
12926;DHT22;6529;50.566;9.774;2023-07-09T06:50:58;21.80;99.90
12926;DHT22;6529;50.566;9.774;2023-07-09T06:53:25;22.00;1.00
12926;DHT22;6529;50.566;9.774;2023-07-09T06:55:51;22.10;1.00
12926;DHT22;6529;50.566;9.774;2023-07-09T06:58:21;22.30;1.00
12926;DHT22;6529;50.566;9.774;2023-07-09T07:00:48;22.40;1.00
12926;DHT22;6529;50.566;9.774;2023-07-09T07:03:14;22.50;99.90
12926;DHT22;6529;50.566;9.774;2023-07-09T07:05:48;22.60;1.00
12926;DHT22;6529;50.566;9.774;2023-07-09T07:08:16;22.80;76.60
12926;DHT22;6529;50.566;9.774;2023-07-09T07:10:44;22.90;1.00
12926;DHT22;6529;50.566;9.774;2023-07-09T07:13:09;23.10;1.00
12926;DHT22;6529;50.566;9.774;2023-07-09T07:15:37;23.20;1.00
12926;DHT22;6529;50.566;9.774;2023-07-09T07:18:03;23.40;1.00
12926;DHT22;6529;50.566;9.774;2023-07-09T07:20:30;23.50;1.00
12926;DHT22;6529;50.566;9.774;2023-07-09T07:22:56;23.70;1.00
12926;DHT22;6529;50.566;9.774;2023-07-09T07:25:23;23.90;27.00
12926;DHT22;6529;50.566;9.774;2023-07-09T07:27:49;24.00;1.00
12926;DHT22;6529;50.566;9.774;2023-07-09T07:30:14;24.20;99.90
12926;DHT22;6529;50.566;9.774;2023-07-09T07:32:47;24.30;99.90
12926;DHT22;6529;50.566;9.774;2023-07-09T07:35:14;24.40;1.00
12926;DHT22;6529;50.566;9.774;2023-07-09T07:37:40;24.60;1.00
12926;DHT22;6529;50.566;9.774;2023-07-09T07:40:07;24.70;99.90
12926;DHT22;6529;50.566;9.774;2023-07-09T07:42:33;24.90;99.90
12926;DHT22;6529;50.566;9.774;2023-07-09T07:44:59;25.10;99.90
12926;DHT22;6529;50.566;9.774;2023-07-09T07:47:25;25.20;99.90
12926;DHT22;6529;50.566;9.774;2023-07-09T07:49:53;25.40;99.90
12926;DHT22;6529;50.566;9.774;2023-07-09T07:52:18;25.50;94.60
12926;DHT22;6529;50.566;9.774;2023-07-09T07:54:44;25.60;53.00
12926;DHT22;6529;50.566;9.774;2023-07-09T07:57:10;25.80;20.60
12926;DHT22;6529;50.566;9.774;2023-07-09T07:59:37;26.00;1.00
12926;DHT22;6529;50.566;9.774;2023-07-09T08:02:04;26.20;1.00
12926;DHT22;6529;50.566;9.774;2023-07-09T08:04:31;26.40;1.00
12926;DHT22;6529;50.566;9.774;2023-07-09T08:06:56;26.60;1.00
12926;DHT22;6529;50.566;9.774;2023-07-09T08:09:22;26.90;1.00
12926;DHT22;6529;50.566;9.774;2023-07-09T08:11:48;27.10;1.00
12926;DHT22;6529;50.566;9.774;2023-07-09T08:14:14;27.30;1.00
12926;DHT22;6529;50.566;9.774;2023-07-09T08:16:40;27.40;99.90
12926;DHT22;6529;50.566;9.774;2023-07-09T08:19:06;27.60;99.90
12926;DHT22;6529;50.566;9.774;2023-07-09T08:21:32;27.90;99.90
12926;DHT22;6529;50.566;9.774;2023-07-09T08:23:57;28.10;99.90
12926;DHT22;6529;50.566;9.774;2023-07-09T08:26:23;28.30;99.90
12926;DHT22;6529;50.566;9.774;2023-07-09T08:28:50;28.30;99.90
12926;DHT22;6529;50.566;9.774;2023-07-09T08:31:16;28.40;99.90
12926;DHT22;6529;50.566;9.774;2023-07-09T08:33:42;28.60;99.90
12926;DHT22;6529;50.566;9.774;2023-07-09T08:36:07;28.80;99.90
12926;DHT22;6529;50.566;9.774;2023-07-09T08:38:33;28.90;99.90
12926;DHT22;6529;50.566;9.774;2023-07-09T08:41:00;28.90;99.90
12926;DHT22;6529;50.566;9.774;2023-07-09T08:46:13;29.20;99.90
12926;DHT22;6529;50.566;9.774;2023-07-09T08:48:43;29.30;99.90
12926;DHT22;6529;50.566;9.774;2023-07-09T08:51:12;29.40;99.90
12926;DHT22;6529;50.566;9.774;2023-07-09T08:53:49;29.60;99.90
12926;DHT22;6529;50.566;9.774;2023-07-09T08:56:16;29.60;99.90
12926;DHT22;6529;50.566;9.774;2023-07-09T08:58:43;29.70;99.90
12926;DHT22;6529;50.566;9.774;2023-07-09T09:01:26;29.80;99.90
12926;DHT22;6529;50.566;9.774;2023-07-09T09:04:00;30.00;99.90
12926;DHT22;6529;50.566;9.774;2023-07-09T09:06:29;30.10;99.90
12926;DHT22;6529;50.566;9.774;2023-07-09T09:09:15;30.20;99.90
12926;DHT22;6529;50.566;9.774;2023-07-09T09:11:53;30.40;99.90
12926;DHT22;6529;50.566;9.774;2023-07-09T09:14:38;30.50;99.90
12926;DHT22;6529;50.566;9.774;2023-07-09T09:17:11;30.50;99.90
12926;DHT22;6529;50.566;9.774;2023-07-09T09:19:47;30.60;99.90
12926;DHT22;6529;50.566;9.774;2023-07-09T09:22:17;30.70;99.90
12926;DHT22;6529;50.566;9.774;2023-07-09T09:27:16;31.00;99.90
12926;DHT22;6529;50.566;9.774;2023-07-09T09:29:42;31.20;99.90
12926;DHT22;6529;50.566;9.774;2023-07-09T09:32:26;31.30;99.90
12926;DHT22;6529;50.566;9.774;2023-07-09T09:34:53;31.40;99.90
12926;DHT22;6529;50.566;9.774;2023-07-09T09:37:31;31.40;99.90
12926;DHT22;6529;50.566;9.774;2023-07-09T09:39:59;31.30;97.10
12926;DHT22;6529;50.566;9.774;2023-07-09T09:42:25;31.50;99.90
12926;DHT22;6529;50.566;9.774;2023-07-09T09:44:54;31.60;96.70
12926;DHT22;6529;50.566;9.774;2023-07-09T09:47:25;31.70;89.00
12926;DHT22;6529;50.566;9.774;2023-07-09T09:49:52;31.60;85.90
12926;DHT22;6529;50.566;9.774;2023-07-09T09:52:18;31.90;86.00
12926;DHT22;6529;50.566;9.774;2023-07-09T09:54:50;32.00;75.10
12926;DHT22;6529;50.566;9.774;2023-07-09T09:57:20;32.20;65.40
12926;DHT22;6529;50.566;9.774;2023-07-09T09:59:47;32.10;56.00
12926;DHT22;6529;50.566;9.774;2023-07-09T10:02:21;32.30;53.70
12926;DHT22;6529;50.566;9.774;2023-07-09T10:04:48;32.50;53.70
12926;DHT22;6529;50.566;9.774;2023-07-09T10:07:38;32.60;43.90
12926;DHT22;6529;50.566;9.774;2023-07-09T10:10:13;32.80;45.80
12926;DHT22;6529;50.566;9.774;2023-07-09T10:18:14;32.70;31.60
12926;DHT22;6529;50.566;9.774;2023-07-09T10:21:10;32.70;29.30
12926;DHT22;6529;50.566;9.774;2023-07-09T10:26:35;33.10;20.30
12926;DHT22;6529;50.566;9.774;2023-07-09T10:29:38;33.10;17.70
12926;DHT22;6529;50.566;9.774;2023-07-09T10:32:23;33.10;11.70
12926;DHT22;6529;50.566;9.774;2023-07-09T10:37:32;33.30;8.00
12926;DHT22;6529;50.566;9.774;2023-07-09T10:40:02;33.30;1.60
12926;DHT22;6529;50.566;9.774;2023-07-09T10:42:45;33.60;4.20
12926;DHT22;6529;50.566;9.774;2023-07-09T10:45:40;33.50;1.00
12926;DHT22;6529;50.566;9.774;2023-07-09T10:50:41;33.90;1.00
12926;DHT22;6529;50.566;9.774;2023-07-09T10:53:22;34.20;1.00
12926;DHT22;6529;50.566;9.774;2023-07-09T10:55:52;34.10;1.00
12926;DHT22;6529;50.566;9.774;2023-07-09T10:58:34;34.10;1.00
12926;DHT22;6529;50.566;9.774;2023-07-09T11:01:02;34.20;1.00
12926;DHT22;6529;50.566;9.774;2023-07-09T11:03:40;34.30;1.00
12926;DHT22;6529;50.566;9.774;2023-07-09T11:06:20;34.30;1.00
12926;DHT22;6529;50.566;9.774;2023-07-09T11:08:50;34.20;1.00
12926;DHT22;6529;50.566;9.774;2023-07-09T11:11:25;34.40;1.00
12926;DHT22;6529;50.566;9.774;2023-07-09T11:13:58;34.50;1.00
12926;DHT22;6529;50.566;9.774;2023-07-09T11:16:41;34.80;1.00
12926;DHT22;6529;50.566;9.774;2023-07-09T11:19:17;34.60;1.00
12926;DHT22;6529;50.566;9.774;2023-07-09T11:21:59;34.60;1.00
12926;DHT22;6529;50.566;9.774;2023-07-09T11:24:34;34.80;1.00
12926;DHT22;6529;50.566;9.774;2023-07-09T11:27:00;35.00;1.00
12926;DHT22;6529;50.566;9.774;2023-07-09T11:29:26;35.00;1.00
12926;DHT22;6529;50.566;9.774;2023-07-09T11:31:54;35.40;1.00
12926;DHT22;6529;50.566;9.774;2023-07-09T11:34:27;35.50;1.00
12926;DHT22;6529;50.566;9.774;2023-07-09T11:41:46;35.60;1.00
12926;DHT22;6529;50.566;9.774;2023-07-09T11:47:21;35.40;1.00
12926;DHT22;6529;50.566;9.774;2023-07-09T11:50:00;35.30;1.00
12926;DHT22;6529;50.566;9.774;2023-07-09T11:53:04;34.90;1.00
12926;DHT22;6529;50.566;9.774;2023-07-09T11:55:46;35.30;1.00
12926;DHT22;6529;50.566;9.774;2023-07-09T11:58:14;35.50;1.00
12926;DHT22;6529;50.566;9.774;2023-07-09T12:01:09;35.40;1.00
12926;DHT22;6529;50.566;9.774;2023-07-09T12:03:41;35.40;1.00
12926;DHT22;6529;50.566;9.774;2023-07-09T12:06:28;35.30;1.00
12926;DHT22;6529;50.566;9.774;2023-07-09T12:08:55;35.40;1.00
12926;DHT22;6529;50.566;9.774;2023-07-09T12:13:49;35.70;1.00
12926;DHT22;6529;50.566;9.774;2023-07-09T12:16:24;35.90;1.00
12926;DHT22;6529;50.566;9.774;2023-07-09T12:18:50;36.30;1.00
12926;DHT22;6529;50.566;9.774;2023-07-09T12:21:16;36.20;1.00
12926;DHT22;6529;50.566;9.774;2023-07-09T12:23:41;36.10;1.00
12926;DHT22;6529;50.566;9.774;2023-07-09T12:26:13;36.00;1.00
12926;DHT22;6529;50.566;9.774;2023-07-09T12:28:38;35.70;1.00
12926;DHT22;6529;50.566;9.774;2023-07-09T12:31:04;35.80;1.00
12926;DHT22;6529;50.566;9.774;2023-07-09T12:33:30;36.20;1.00
12926;DHT22;6529;50.566;9.774;2023-07-09T12:36:00;36.10;1.00
12926;DHT22;6529;50.566;9.774;2023-07-09T12:38:29;36.50;1.00
12926;DHT22;6529;50.566;9.774;2023-07-09T12:40:55;37.00;1.00
12926;DHT22;6529;50.566;9.774;2023-07-09T12:43:31;37.10;1.00
12926;DHT22;6529;50.566;9.774;2023-07-09T12:45:59;37.10;1.00
12926;DHT22;6529;50.566;9.774;2023-07-09T12:48:27;37.20;1.00
12926;DHT22;6529;50.566;9.774;2023-07-09T12:50:56;37.00;1.00
12926;DHT22;6529;50.566;9.774;2023-07-09T12:53:25;36.50;1.00
12926;DHT22;6529;50.566;9.774;2023-07-09T12:55:59;36.50;1.00
12926;DHT22;6529;50.566;9.774;2023-07-09T12:58:31;36.50;1.00
12926;DHT22;6529;50.566;9.774;2023-07-09T13:00:59;36.40;1.00
12926;DHT22;6529;50.566;9.774;2023-07-09T13:03:27;36.40;1.00
12926;DHT22;6529;50.566;9.774;2023-07-09T13:08:20;36.40;1.00
12926;DHT22;6529;50.566;9.774;2023-07-09T13:10:46;36.40;1.00
12926;DHT22;6529;50.566;9.774;2023-07-09T13:13:16;36.30;1.00
12926;DHT22;6529;50.566;9.774;2023-07-09T13:15:43;36.40;1.00
12926;DHT22;6529;50.566;9.774;2023-07-09T13:18:12;36.80;1.00
12926;DHT22;6529;50.566;9.774;2023-07-09T13:20:39;37.00;1.00
12926;DHT22;6529;50.566;9.774;2023-07-09T13:23:19;37.30;1.00
12926;DHT22;6529;50.566;9.774;2023-07-09T13:25:45;37.60;1.00
12926;DHT22;6529;50.566;9.774;2023-07-09T13:28:29;37.40;1.00
12926;DHT22;6529;50.566;9.774;2023-07-09T13:31:24;37.30;1.00
12926;DHT22;6529;50.566;9.774;2023-07-09T13:33:54;37.40;1.00
12926;DHT22;6529;50.566;9.774;2023-07-09T13:36:20;37.40;1.00
12926;DHT22;6529;50.566;9.774;2023-07-09T13:38:46;37.50;1.00
12926;DHT22;6529;50.566;9.774;2023-07-09T13:41:15;37.50;1.00
12926;DHT22;6529;50.566;9.774;2023-07-09T13:43:44;37.70;1.00
12926;DHT22;6529;50.566;9.774;2023-07-09T13:46:10;37.70;1.00
12926;DHT22;6529;50.566;9.774;2023-07-09T13:48:38;37.20;1.00
12926;DHT22;6529;50.566;9.774;2023-07-09T13:53:40;37.50;1.00
12926;DHT22;6529;50.566;9.774;2023-07-09T13:56:06;37.90;1.00
12926;DHT22;6529;50.566;9.774;2023-07-09T13:58:31;37.80;1.00
12926;DHT22;6529;50.566;9.774;2023-07-09T14:01:09;38.10;1.00
12926;DHT22;6529;50.566;9.774;2023-07-09T14:03:36;38.50;1.00
12926;DHT22;6529;50.566;9.774;2023-07-09T14:06:02;38.10;1.00
12926;DHT22;6529;50.566;9.774;2023-07-09T14:08:27;38.20;1.00
12926;DHT22;6529;50.566;9.774;2023-07-09T14:10:53;38.40;1.00
12926;DHT22;6529;50.566;9.774;2023-07-09T14:13:23;38.40;1.00
12926;DHT22;6529;50.566;9.774;2023-07-09T14:15:49;38.70;1.00
12926;DHT22;6529;50.566;9.774;2023-07-09T14:18:20;38.30;1.00
12926;DHT22;6529;50.566;9.774;2023-07-09T14:20:46;38.30;1.00
12926;DHT22;6529;50.566;9.774;2023-07-09T14:23:15;38.20;1.00
12926;DHT22;6529;50.566;9.774;2023-07-09T14:25:42;37.70;1.00
12926;DHT22;6529;50.566;9.774;2023-07-09T14:28:14;37.90;1.00
12926;DHT22;6529;50.566;9.774;2023-07-09T14:30:40;38.00;1.00
12926;DHT22;6529;50.566;9.774;2023-07-09T14:33:18;38.10;1.00
12926;DHT22;6529;50.566;9.774;2023-07-09T14:35:44;38.10;1.00
12926;DHT22;6529;50.566;9.774;2023-07-09T14:38:19;38.10;1.00
12926;DHT22;6529;50.566;9.774;2023-07-09T14:40:46;37.90;1.00
12926;DHT22;6529;50.566;9.774;2023-07-09T14:43:13;37.10;1.00
12926;DHT22;6529;50.566;9.774;2023-07-09T14:45:39;36.70;1.00
12926;DHT22;6529;50.566;9.774;2023-07-09T14:48:16;36.60;1.00
12926;DHT22;6529;50.566;9.774;2023-07-09T14:50:42;36.80;1.00
12926;DHT22;6529;50.566;9.774;2023-07-09T14:53:20;37.00;1.00
12926;DHT22;6529;50.566;9.774;2023-07-09T14:55:46;37.30;1.00
12926;DHT22;6529;50.566;9.774;2023-07-09T14:58:17;37.20;1.00
12926;DHT22;6529;50.566;9.774;2023-07-09T15:00:44;37.50;1.00
12926;DHT22;6529;50.566;9.774;2023-07-09T15:03:17;36.90;1.00
12926;DHT22;6529;50.566;9.774;2023-07-09T15:05:43;36.30;1.00
12926;DHT22;6529;50.566;9.774;2023-07-09T15:08:17;35.70;1.00
12926;DHT22;6529;50.566;9.774;2023-07-09T15:10:43;35.60;1.00
12926;DHT22;6529;50.566;9.774;2023-07-09T15:13:36;35.60;1.00
12926;DHT22;6529;50.566;9.774;2023-07-09T15:16:03;35.50;1.00
12926;DHT22;6529;50.566;9.774;2023-07-09T15:18:28;35.40;1.00
12926;DHT22;6529;50.566;9.774;2023-07-09T15:20:56;36.00;1.00
12926;DHT22;6529;50.566;9.774;2023-07-09T15:23:23;36.10;1.00
12926;DHT22;6529;50.566;9.774;2023-07-09T15:25:49;36.00;1.00
12926;DHT22;6529;50.566;9.774;2023-07-09T15:28:15;35.90;1.00
12926;DHT22;6529;50.566;9.774;2023-07-09T15:30:41;35.80;1.00
12926;DHT22;6529;50.566;9.774;2023-07-09T15:33:16;35.80;1.00
12926;DHT22;6529;50.566;9.774;2023-07-09T15:35:43;35.70;1.00
12926;DHT22;6529;50.566;9.774;2023-07-09T15:38:27;35.50;1.00
12926;DHT22;6529;50.566;9.774;2023-07-09T15:40:53;35.70;1.00
12926;DHT22;6529;50.566;9.774;2023-07-09T15:43:19;36.00;1.00
12926;DHT22;6529;50.566;9.774;2023-07-09T15:45:48;36.10;1.00
12926;DHT22;6529;50.566;9.774;2023-07-09T15:48:41;36.10;1.00
12926;DHT22;6529;50.566;9.774;2023-07-09T15:51:09;36.00;1.00
12926;DHT22;6529;50.566;9.774;2023-07-09T15:53:35;35.50;1.00
12926;DHT22;6529;50.566;9.774;2023-07-09T15:58:39;35.30;1.00
12926;DHT22;6529;50.566;9.774;2023-07-09T16:01:07;35.20;1.00
12926;DHT22;6529;50.566;9.774;2023-07-09T16:03:33;34.80;1.00
12926;DHT22;6529;50.566;9.774;2023-07-09T16:05:59;34.70;1.00
12926;DHT22;6529;50.566;9.774;2023-07-09T16:08:24;34.50;1.00
12926;DHT22;6529;50.566;9.774;2023-07-09T16:10:50;34.50;1.00
12926;DHT22;6529;50.566;9.774;2023-07-09T16:13:26;34.60;1.00
12926;DHT22;6529;50.566;9.774;2023-07-09T16:15:52;34.60;1.00
12926;DHT22;6529;50.566;9.774;2023-07-09T16:18:18;34.60;1.00
12926;DHT22;6529;50.566;9.774;2023-07-09T16:20:44;34.60;1.00
12926;DHT22;6529;50.566;9.774;2023-07-09T16:23:19;34.50;1.00
12926;DHT22;6529;50.566;9.774;2023-07-09T16:25:47;34.50;1.00
12926;DHT22;6529;50.566;9.774;2023-07-09T16:28:14;34.50;1.00
12926;DHT22;6529;50.566;9.774;2023-07-09T16:30:40;34.50;1.00
12926;DHT22;6529;50.566;9.774;2023-07-09T16:33:06;34.50;1.00
12926;DHT22;6529;50.566;9.774;2023-07-09T16:35:32;34.40;1.00
12926;DHT22;6529;50.566;9.774;2023-07-09T16:37:58;34.30;1.00
12926;DHT22;6529;50.566;9.774;2023-07-09T16:40:30;34.30;1.00
12926;DHT22;6529;50.566;9.774;2023-07-09T16:42:57;34.20;1.00
12926;DHT22;6529;50.566;9.774;2023-07-09T16:45:24;34.10;1.00
12926;DHT22;6529;50.566;9.774;2023-07-09T16:47:51;34.10;1.00
12926;DHT22;6529;50.566;9.774;2023-07-09T16:50:19;34.10;1.00